Gar Creek, Indiana
Current Conditions -  °F | °C
As of 11:54 PM on Saturday 25 Oct 2014 (Local Time) from KFWA Reporting Station
Clear Clear  
Wind Chill: 55°   Ceiling: Unl
Heat Index: 55°   Visibility: 10mi
Dew Point: 35°   Wind: 7mph
Humidity: 47%   Direction: 300°WNW
Pressure: 29.92"   Gusts: NA
Location:  41.0925°N, 84.9712°W
Report Text: KFWA 260354Z 30006KT 10SM CLR 13/02 A2992 RMK AO2 SLP129 T01280017
Loading
Personal Weather Stations






























Interactive Weather Map
Tropical Storm Tracking
New forecast layout! Learn more

10-Day Weather Forecast

Advertisements
Track Severe Weather on mobile